createdAt,value
2019-02-25T00:01:03.004Z,6.35
2019-02-25T00:02:15.946Z,5.90
2019-02-25T00:03:20.053Z,5.40
2019-02-25T00:04:24.179Z,5.17
2019-02-25T00:05:28.332Z,5.15
2019-02-25T00:06:32.427Z,5.00
2019-02-25T00:07:36.845Z,5.35
2019-02-25T00:08:40.934Z,5.30
2019-02-25T00:09:45.313Z,5.37
2019-02-25T00:10:49.473Z,5.03
2019-02-25T00:11:53.624Z,5.35
2019-02-25T00:12:57.720Z,6.37
2019-02-25T00:14:01.864Z,6.65
2019-02-25T00:15:06.098Z,6.85
2019-02-25T00:16:10.303Z,6.37
2019-02-25T00:17:14.397Z,6.08
2019-02-25T00:18:18.583Z,6.30
2019-02-25T00:19:22.769Z,5.90
2019-02-25T00:20:26.887Z,5.45
2019-02-25T00:21:31.036Z,5.87
2019-02-25T00:22:35.174Z,6.05
2019-02-25T00:23:39.272Z,5.60
2019-02-25T00:24:43.378Z,5.47
2019-02-25T00:25:47.531Z,5.53
2019-02-25T00:26:51.643Z,4.80
2019-02-25T00:27:55.759Z,4.97
2019-02-25T00:28:59.891Z,4.50
2019-02-25T00:30:04.454Z,4.28
2019-02-25T00:31:08.638Z,4.35
2019-02-25T00:32:12.855Z,4.03
2019-02-25T00:33:16.978Z,3.85
2019-02-25T00:34:21.191Z,4.42
2019-02-25T00:35:25.370Z,4.30
2019-02-25T00:36:29.521Z,4.40
2019-02-25T00:37:33.667Z,4.10
2019-02-25T00:38:37.839Z,4.37
2019-02-25T00:39:41.915Z,4.60
2019-02-25T00:40:46.060Z,4.87
2019-02-25T00:41:50.163Z,5.30
2019-02-25T00:42:54.300Z,5.10
2019-02-25T00:43:58.463Z,4.70
2019-02-25T00:45:02.645Z,4.50
2019-02-25T00:46:06.783Z,5.00
2019-02-25T00:47:10.990Z,5.25
2019-02-25T00:48:15.081Z,4.53
2019-02-25T00:49:19.168Z,4.80
2019-02-25T00:50:23.289Z,4.55
2019-02-25T00:51:27.417Z,4.67
2019-02-25T00:52:31.555Z,4.20
2019-02-25T00:53:35.670Z,4.70
2019-02-25T00:54:39.812Z,4.47
2019-02-25T00:55:43.904Z,4.70
2019-02-25T00:56:48.039Z,4.45
2019-02-25T00:57:52.172Z,4.58
2019-02-25T00:58:56.280Z,5.15
2019-02-25T01:00:00.667Z,4.92
2019-02-25T01:01:04.775Z,5.30
2019-02-25T01:02:08.895Z,5.37
2019-02-25T01:03:13.035Z,5.35
2019-02-25T01:04:17.225Z,4.58
2019-02-25T01:05:21.337Z,5.05
2019-02-25T01:06:25.571Z,5.05
2019-02-25T01:07:29.681Z,4.75
2019-02-25T01:08:33.863Z,5.90
2019-02-25T01:09:37.976Z,4.67
2019-02-25T01:10:42.054Z,4.50
2019-02-25T01:11:46.242Z,4.92
2019-02-25T01:12:50.360Z,5.17
2019-02-25T01:13:54.540Z,4.58
2019-02-25T01:14:58.662Z,4.60
2019-02-25T01:16:02.851Z,4.12
2019-02-25T01:17:06.943Z,4.55
2019-02-25T01:18:11.094Z,4.72
2019-02-25T01:19:15.194Z,4.33
2019-02-25T01:20:19.310Z,4.37
2019-02-25T01:21:23.395Z,4.22
2019-02-25T01:22:27.507Z,4.17
2019-02-25T01:23:31.620Z,3.50
2019-02-25T01:24:35.782Z,4.40
2019-02-25T01:25:39.872Z,4.03
2019-02-25T01:26:44.016Z,4.10
2019-02-25T01:27:48.199Z,4.70
2019-02-25T01:28:52.312Z,4.42
2019-02-25T01:29:56.411Z,4.15
2019-02-25T01:31:00.575Z,4.25
2019-02-25T01:32:04.723Z,4.08
2019-02-25T01:33:08.870Z,4.35
2019-02-25T01:34:12.942Z,4.12
2019-02-25T01:35:17.032Z,4.65
2019-02-25T01:36:21.133Z,3.90
2019-02-25T01:37:25.239Z,4.03
2019-02-25T01:38:29.396Z,4.15
2019-02-25T01:39:33.511Z,4.10
2019-02-25T01:40:37.807Z,4.50
2019-02-25T01:41:41.999Z,3.92
2019-02-25T01:42:46.096Z,3.87
2019-02-25T01:43:50.285Z,4.17
2019-02-25T01:44:54.391Z,3.98
2019-02-25T01:45:58.495Z,4.25
2019-02-25T01:47:02.581Z,4.35
2019-02-25T01:48:06.675Z,4.20
2019-02-25T01:49:10.795Z,4.78
2019-02-25T01:50:14.953Z,4.50
2019-02-25T01:51:19.027Z,4.20
2019-02-25T01:52:23.132Z,3.87
2019-02-25T01:53:27.219Z,4.10
2019-02-25T01:54:31.338Z,3.75
2019-02-25T01:55:35.457Z,4.28
2019-02-25T01:56:39.636Z,4.10
2019-02-25T01:57:43.729Z,4.28
2019-02-25T01:58:47.836Z,4.10
2019-02-25T01:59:51.953Z,4.45
2019-02-25T02:00:56.043Z,4.40
2019-02-25T02:02:00.172Z,4.00
2019-02-25T02:03:04.524Z,3.85
2019-02-25T02:04:08.644Z,4.22
2019-02-25T02:05:12.887Z,4.90
2019-02-25T02:06:17.077Z,4.62
2019-02-25T02:07:21.159Z,4.30
2019-02-25T02:08:25.253Z,4.30
2019-02-25T02:09:29.404Z,4.22
2019-02-25T02:10:33.559Z,4.83
2019-02-25T02:11:37.663Z,3.98
2019-02-25T02:12:41.742Z,4.70
2019-02-25T02:13:45.822Z,4.37
2019-02-25T02:14:50.023Z,4.45
2019-02-25T02:15:54.145Z,4.80
2019-02-25T02:16:58.221Z,4.35
2019-02-25T02:18:02.312Z,4.67
2019-02-25T02:19:06.689Z,4.45
2019-02-25T02:20:12.118Z,4.65
2019-02-25T02:21:16.233Z,4.28
2019-02-25T02:22:20.339Z,3.87
2019-02-25T02:23:24.438Z,3.85
2019-02-25T02:24:28.518Z,4.05
2019-02-25T02:25:32.619Z,4.15
2019-02-25T02:26:36.750Z,3.87
2019-02-25T02:27:41.434Z,3.95
2019-02-25T02:28:45.599Z,3.85
2019-02-25T02:29:49.742Z,4.20
2019-02-25T02:30:53.839Z,3.90
2019-02-25T02:31:57.943Z,3.47
2019-02-25T02:33:02.023Z,3.98
2019-02-25T02:34:06.131Z,4.08
2019-02-25T02:35:12.783Z,3.83
2019-02-25T02:36:16.859Z,3.60
2019-02-25T02:37:20.989Z,3.60
2019-02-25T02:38:25.151Z,4.53
2019-02-25T02:39:29.271Z,3.75
2019-02-25T02:40:33.373Z,4.05
2019-02-25T02:42:17.067Z,4.33
2019-02-25T02:43:21.150Z,3.52
2019-02-25T02:44:25.316Z,3.75
2019-02-25T02:45:45.244Z,4.00
2019-02-25T02:47:25.144Z,4.12
2019-02-25T02:48:36.122Z,4.17
2019-02-25T02:49:40.203Z,4.28
2019-02-25T02:50:44.297Z,4.00
2019-02-25T02:51:48.415Z,4.03
2019-02-25T02:52:52.507Z,3.90
2019-02-25T02:53:56.630Z,4.25
2019-02-25T02:55:00.723Z,4.00
2019-02-25T02:56:04.842Z,3.87
2019-02-25T02:57:08.947Z,4.25
2019-02-25T02:58:13.459Z,4.15
2019-02-25T02:59:17.541Z,4.12
2019-02-25T03:00:21.709Z,4.10
2019-02-25T03:01:25.892Z,4.08
2019-02-25T03:02:29.979Z,4.15
2019-02-25T03:03:34.170Z,3.83
2019-02-25T03:04:38.250Z,4.30
2019-02-25T03:05:42.340Z,4.53
2019-02-25T03:06:46.427Z,4.05
2019-02-25T03:07:50.867Z,4.30
2019-02-25T03:08:55.012Z,4.53
2019-02-25T03:09:59.090Z,4.70
2019-02-25T03:11:03.197Z,3.50
2019-02-25T03:12:07.281Z,3.58
2019-02-25T03:13:11.395Z,3.98
2019-02-25T03:14:15.556Z,3.92
2019-02-25T03:15:21.119Z,3.42
2019-02-25T03:16:25.236Z,3.60
2019-02-25T03:17:29.337Z,3.50
2019-02-25T03:18:33.563Z,3.67
2019-02-25T03:19:37.998Z,4.05
2019-02-25T03:20:42.112Z,3.98
2019-02-25T03:21:46.239Z,3.62
2019-02-25T03:22:50.307Z,3.80
2019-02-25T03:23:54.435Z,3.60
2019-02-25T03:24:58.529Z,3.42
2019-02-25T03:26:02.620Z,3.77
2019-02-25T03:27:06.885Z,3.75
2019-02-25T03:28:10.979Z,3.45
2019-02-25T03:29:15.098Z,3.60
2019-02-25T03:30:20.085Z,3.77
2019-02-25T03:31:24.233Z,3.65
2019-02-25T03:32:28.346Z,3.47
2019-02-25T03:33:32.420Z,4.20
2019-02-25T03:34:36.587Z,3.77
2019-02-25T03:35:40.692Z,4.00
2019-02-25T03:36:44.802Z,4.00
2019-02-25T03:37:48.920Z,4.08
2019-02-25T03:38:53.031Z,3.90
2019-02-25T03:39:57.417Z,3.80
2019-02-25T03:41:01.715Z,3.55
2019-02-25T03:42:05.897Z,4.08
2019-02-25T03:43:10.097Z,4.22
2019-02-25T03:44:14.189Z,3.92
2019-02-25T03:45:18.524Z,3.67
2019-02-25T03:46:22.608Z,4.17
2019-02-25T03:47:26.691Z,3.98
2019-02-25T03:48:30.806Z,3.62
2019-02-25T03:49:34.918Z,3.90
2019-02-25T03:50:39.247Z,4.17
2019-02-25T03:51:43.343Z,3.72
2019-02-25T03:52:47.717Z,4.17
2019-02-25T03:53:51.807Z,4.03
2019-02-25T03:54:55.904Z,3.90
2019-02-25T03:56:00.127Z,3.98
2019-02-25T03:57:04.231Z,4.50
2019-02-25T03:58:08.375Z,4.20
2019-02-25T03:59:12.479Z,3.70
2019-02-25T04:00:18.495Z,4.17
2019-02-25T04:01:22.581Z,4.33
2019-02-25T04:02:26.695Z,4.25
2019-02-25T04:03:30.860Z,3.90
2019-02-25T04:04:34.975Z,4.22
2019-02-25T04:05:39.058Z,3.95
2019-02-25T04:06:43.141Z,3.75
2019-02-25T04:07:47.331Z,4.33
2019-02-25T04:08:51.519Z,4.03
2019-02-25T04:09:55.905Z,3.90
2019-02-25T04:10:59.982Z,4.08
2019-02-25T04:12:04.067Z,4.33
2019-02-25T04:13:08.244Z,4.25
2019-02-25T04:14:12.649Z,4.45
2019-02-25T04:15:19.490Z,4.33
2019-02-25T04:16:23.706Z,4.40
2019-02-25T04:17:27.791Z,4.22
2019-02-25T04:18:31.878Z,4.30
2019-02-25T04:19:36.024Z,4.25
2019-02-25T04:20:40.144Z,4.03
2019-02-25T04:21:44.295Z,4.40
2019-02-25T04:22:48.378Z,4.25
2019-02-25T04:23:52.462Z,5.00
2019-02-25T04:24:56.823Z,4.45
2019-02-25T04:26:00.936Z,4.33
2019-02-25T04:27:05.042Z,4.20
2019-02-25T04:28:09.222Z,4.05
2019-02-25T04:29:13.387Z,4.50
2019-02-25T04:30:17.479Z,4.87
2019-02-25T04:31:21.584Z,4.65
2019-02-25T04:32:25.774Z,4.10
2019-02-25T04:33:29.884Z,4.45
2019-02-25T04:34:33.980Z,4.05
2019-02-25T04:35:38.098Z,4.58
2019-02-25T04:36:42.223Z,4.80
2019-02-25T04:37:46.398Z,4.15
2019-02-25T04:38:50.559Z,4.87
2019-02-25T04:39:54.631Z,3.98
2019-02-25T04:40:58.748Z,4.20
2019-02-25T04:42:02.839Z,4.00
2019-02-25T04:43:07.025Z,4.40
2019-02-25T04:44:11.218Z,4.20
2019-02-25T04:45:16.820Z,3.72
2019-02-25T04:46:20.958Z,4.50
2019-02-25T04:47:25.121Z,4.30
2019-02-25T04:48:29.255Z,3.80
2019-02-25T04:49:33.420Z,3.90
2019-02-25T04:50:37.554Z,4.55
2019-02-25T04:51:41.672Z,4.62
2019-02-25T04:52:46.099Z,3.87
2019-02-25T04:53:50.213Z,4.10
2019-02-25T04:54:54.633Z,4.37
2019-02-25T04:55:58.758Z,4.08
2019-02-25T04:57:02.859Z,4.00
2019-02-25T04:58:07.264Z,4.08
2019-02-25T04:59:11.368Z,3.60
2019-02-25T05:00:16.589Z,4.45
2019-02-25T05:01:20.750Z,4.58
2019-02-25T05:02:24.950Z,4.17
2019-02-25T05:03:29.156Z,4.40
2019-02-25T05:04:33.358Z,4.50
2019-02-25T05:05:37.439Z,4.12
2019-02-25T05:06:41.514Z,4.12
2019-02-25T05:07:45.675Z,4.00
2019-02-25T05:08:49.826Z,3.95
2019-02-25T05:09:53.911Z,4.30
2019-02-25T05:10:58.020Z,4.55
2019-02-25T05:12:02.188Z,4.55
2019-02-25T05:13:06.390Z,4.67
2019-02-25T05:14:10.748Z,4.75
2019-02-25T05:15:16.283Z,4.90
2019-02-25T05:16:20.366Z,5.53
2019-02-25T05:17:24.485Z,5.00
2019-02-25T05:18:28.654Z,4.83
2019-02-25T05:19:33.021Z,5.20
2019-02-25T05:20:37.113Z,5.22
2019-02-25T05:21:41.238Z,4.50
2019-02-25T05:22:45.455Z,4.62
2019-02-25T05:23:49.565Z,4.78
2019-02-25T05:24:53.825Z,4.35
2019-02-25T05:25:57.901Z,4.42
2019-02-25T05:27:01.988Z,4.20
2019-02-25T05:28:06.087Z,4.08
2019-02-25T05:29:10.237Z,4.50
2019-02-25T05:30:14.567Z,4.60
2019-02-25T05:31:18.720Z,3.70
2019-02-25T05:32:22.843Z,4.30
2019-02-25T05:33:26.959Z,4.15
2019-02-25T05:34:31.121Z,4.28
2019-02-25T05:35:35.242Z,4.45
2019-02-25T05:36:39.363Z,4.37
2019-02-25T05:37:43.744Z,4.28
2019-02-25T05:38:47.856Z,4.30
2019-02-25T05:39:51.965Z,4.45
2019-02-25T05:40:56.057Z,4.33
2019-02-25T05:42:00.151Z,4.65
2019-02-25T05:43:04.317Z,4.55
2019-02-25T05:44:08.684Z,4.17
2019-02-25T05:45:12.922Z,4.22
2019-02-25T05:46:17.028Z,4.25
2019-02-25T05:47:21.141Z,4.22
2019-02-25T05:48:25.240Z,3.98
2019-02-25T05:49:29.371Z,4.15
2019-02-25T05:50:33.460Z,4.80
2019-02-25T05:51:37.576Z,4.28
2019-02-25T05:52:41.668Z,4.62
2019-02-25T05:53:45.768Z,4.67
2019-02-25T05:54:49.867Z,6.47
2019-02-25T05:55:53.976Z,8.00
2019-02-25T05:56:58.118Z,8.48
2019-02-25T05:58:02.243Z,9.83
2019-02-25T05:59:06.433Z,8.30
2019-02-25T06:00:13.824Z,7.92
2019-02-25T06:01:17.913Z,7.22
2019-02-25T06:02:22.015Z,6.78
2019-02-25T06:03:26.140Z,5.00
2019-02-25T06:04:30.361Z,5.42
2019-02-25T06:05:34.507Z,5.20
2019-02-25T06:06:38.619Z,4.87
2019-02-25T06:07:42.796Z,4.90
2019-02-25T06:08:46.891Z,5.10
2019-02-25T06:09:51.024Z,5.50
2019-02-25T06:10:55.115Z,6.30
2019-02-25T06:11:59.216Z,6.08
2019-02-25T06:13:03.347Z,6.53
2019-02-25T06:14:07.432Z,6.28
2019-02-25T06:15:12.636Z,6.67
2019-02-25T06:16:16.752Z,6.60
2019-02-25T06:17:20.944Z,6.55
2019-02-25T06:18:25.039Z,6.50
2019-02-25T06:19:29.180Z,6.22
2019-02-25T06:20:33.303Z,6.62
2019-02-25T06:21:37.382Z,6.22
2019-02-25T06:22:41.475Z,5.97
2019-02-25T06:23:45.552Z,6.20
2019-02-25T06:24:49.680Z,5.72
2019-02-25T06:25:53.795Z,5.67
2019-02-25T06:26:57.893Z,5.28
2019-02-25T06:28:02.072Z,6.20
2019-02-25T06:29:06.161Z,5.70
2019-02-25T06:30:12.746Z,5.65
2019-02-25T06:31:16.848Z,5.67
2019-02-25T06:32:20.977Z,5.42
2019-02-25T06:33:25.059Z,5.40
2019-02-25T06:34:29.156Z,5.50
2019-02-25T06:35:33.279Z,5.97
2019-02-25T06:36:37.424Z,5.78
2019-02-25T06:37:41.511Z,4.97
2019-02-25T06:38:45.656Z,5.90
2019-02-25T06:39:49.784Z,6.05
2019-02-25T06:40:53.956Z,5.90
2019-02-25T06:41:58.359Z,6.45
2019-02-25T06:43:02.519Z,5.60
2019-02-25T06:44:06.670Z,5.92
2019-02-25T06:45:13.660Z,6.25
2019-02-25T06:46:17.774Z,5.72
2019-02-25T06:47:22.492Z,5.35
2019-02-25T06:48:26.636Z,5.95
2019-02-25T06:49:30.783Z,5.03
2019-02-25T06:50:34.979Z,4.95
2019-02-25T06:51:39.196Z,5.30
2019-02-25T06:52:43.348Z,4.90
2019-02-25T06:53:47.467Z,4.70
2019-02-25T06:54:51.639Z,4.60
2019-02-25T06:55:55.744Z,4.90
2019-02-25T06:56:59.876Z,4.40
2019-02-25T06:58:04.070Z,4.55
2019-02-25T06:59:08.175Z,4.90
2019-02-25T07:00:14.387Z,4.33
2019-02-25T07:01:18.500Z,4.55
2019-02-25T07:02:22.603Z,5.03
2019-02-25T07:03:26.679Z,4.40
2019-02-25T07:04:44.731Z,4.78
2019-02-25T07:06:07.808Z,5.22
2019-02-25T07:07:30.921Z,5.03
2019-02-25T07:08:50.316Z,4.87
2019-02-25T07:09:58.784Z,4.53
2019-02-25T07:11:17.834Z,5.00
2019-02-25T07:12:39.313Z,5.10
2019-02-25T07:13:52.507Z,5.00
2019-02-25T07:15:18.355Z,5.72
2019-02-25T07:16:32.238Z,4.65
2019-02-25T07:17:44.638Z,5.15
2019-02-25T07:19:01.609Z,5.03
2019-02-25T07:20:15.150Z,4.83
2019-02-25T07:21:25.811Z,4.95
2019-02-25T07:23:06.791Z,4.92
2019-02-25T07:24:35.635Z,4.30
2019-02-25T07:26:07.471Z,5.40
2019-02-25T07:27:19.388Z,5.00
2019-02-25T07:28:54.675Z,4.90
2019-02-25T07:30:04.491Z,4.80
2019-02-25T07:31:26.212Z,4.95
2019-02-25T07:32:44.568Z,4.97
2019-02-25T07:34:07.629Z,4.70
2019-02-25T07:35:30.652Z,4.92
2019-02-25T07:36:46.285Z,4.97
2019-02-25T07:38:15.617Z,5.25
2019-02-25T07:39:37.324Z,4.70
2019-02-25T07:41:09.590Z,8.60
2019-02-25T07:42:35.379Z,7.03
2019-02-25T07:43:48.369Z,7.40
2019-02-25T07:45:02.687Z,7.42
2019-02-25T07:46:24.172Z,7.08
2019-02-25T07:47:50.316Z,7.72
2019-02-25T07:49:04.788Z,7.40
2019-02-25T07:50:29.084Z,7.33
2019-02-25T07:51:41.027Z,7.45
2019-02-25T07:52:52.260Z,7.10
2019-02-25T07:54:15.331Z,7.10
2019-02-25T07:55:44.177Z,7.10
2019-02-25T07:56:56.716Z,5.12
2019-02-25T07:58:08.874Z,6.05
2019-02-25T07:59:37.729Z,5.42
2019-02-25T08:01:03.700Z,5.67
2019-02-25T08:02:29.531Z,5.17
2019-02-25T08:03:42.824Z,5.60
2019-02-25T08:05:06.019Z,5.50
2019-02-25T08:06:18.149Z,5.72
2019-02-25T08:07:35.346Z,5.70
2019-02-25T08:08:56.832Z,4.75
2019-02-25T08:10:10.150Z,4.85
2019-02-25T08:11:24.344Z,4.78
2019-02-25T08:12:56.282Z,4.70
2019-02-25T08:14:25.439Z,4.37
2019-02-25T08:15:35.086Z,4.72
2019-02-25T08:16:56.511Z,4.70
2019-02-25T08:18:06.503Z,4.78
2019-02-25T08:19:32.574Z,4.22
2019-02-25T08:20:54.106Z,4.25
2019-02-25T08:22:12.203Z,4.00
2019-02-25T08:23:33.907Z,4.20
2019-02-25T08:24:55.585Z,3.83
2019-02-25T08:26:21.774Z,4.20
2019-02-25T08:27:50.835Z,3.75
2019-02-25T08:29:02.466Z,3.80
2019-02-25T08:30:26.569Z,4.05
2019-02-25T08:31:58.662Z,4.33
2019-02-25T08:33:30.940Z,4.37
2019-02-25T08:35:03.139Z,3.85
2019-02-25T08:37:18.134Z,4.30
2019-02-25T08:38:41.177Z,4.40
2019-02-25T08:40:00.841Z,4.28
2019-02-25T08:41:20.862Z,4.30
2019-02-25T08:42:35.051Z,4.17
2019-02-25T08:43:47.194Z,4.40
2019-02-25T08:44:56.876Z,4.20
2019-02-25T08:46:14.228Z,16.40
2019-02-25T08:47:23.000Z,9.38
2019-02-25T08:48:32.715Z,6.75
2019-02-25T08:49:46.047Z,5.10
2019-02-25T08:50:50.180Z,5.05
2019-02-25T08:51:54.382Z,4.75
2019-02-25T08:52:58.767Z,4.97
2019-02-25T08:54:02.900Z,4.47
2019-02-25T08:55:08.356Z,4.20
2019-02-25T08:56:12.476Z,3.70
2019-02-25T08:57:16.638Z,4.20
2019-02-25T08:58:20.748Z,4.10
2019-02-25T08:59:24.839Z,4.10
2019-02-25T09:00:29.005Z,3.85
2019-02-25T09:01:33.123Z,4.33
2019-02-25T09:02:37.249Z,3.83
2019-02-25T09:03:41.381Z,4.05
2019-02-25T09:04:45.489Z,4.00
2019-02-25T09:05:49.559Z,4.35
2019-02-25T09:06:53.686Z,4.30
2019-02-25T09:07:57.898Z,4.90
2019-02-25T09:09:01.980Z,5.90
2019-02-25T09:10:06.560Z,6.25
2019-02-25T09:11:14.074Z,5.55
2019-02-25T09:12:16.527Z,5.30
2019-02-25T09:13:20.705Z,6.15
2019-02-25T09:14:24.802Z,5.00
2019-02-25T09:15:29.196Z,5.50
2019-02-25T09:16:34.262Z,5.10
2019-02-25T09:17:43.787Z,5.53
2019-02-25T09:18:48.155Z,5.30
2019-02-25T09:19:52.247Z,5.30
2019-02-25T09:20:56.429Z,4.78
2019-02-25T09:22:00.557Z,4.35
2019-02-25T09:23:04.639Z,4.80
2019-02-25T09:24:08.747Z,4.67
2019-02-25T09:25:13.030Z,5.83
2019-02-25T09:26:17.172Z,5.10
2019-02-25T09:27:21.308Z,5.15
2019-02-25T09:28:25.432Z,6.00
2019-02-25T09:29:29.544Z,5.25
2019-02-25T09:30:33.639Z,5.40
2019-02-25T09:31:37.761Z,5.47
2019-02-25T09:32:42.046Z,5.05
2019-02-25T09:33:46.129Z,4.50
2019-02-25T09:34:50.259Z,4.45
2019-02-25T09:35:54.351Z,4.50
2019-02-25T09:36:58.444Z,4.58
2019-02-25T09:38:02.562Z,4.92
2019-02-25T09:39:11.118Z,4.42
2019-02-25T09:40:15.625Z,5.10
2019-02-25T09:41:19.726Z,4.70
2019-02-25T09:42:23.814Z,4.03
2019-02-25T09:43:27.927Z,4.55
2019-02-25T09:44:32.051Z,4.62
2019-02-25T09:45:36.154Z,5.25
2019-02-25T09:46:40.275Z,5.20
2019-02-25T09:47:44.427Z,5.10
2019-02-25T09:48:48.819Z,4.87
2019-02-25T09:49:52.921Z,4.30
2019-02-25T09:50:57.000Z,4.50
2019-02-25T09:52:01.128Z,5.10
2019-02-25T09:53:07.264Z,3.75
2019-02-25T09:54:11.096Z,4.25
2019-02-25T09:55:15.271Z,5.05
2019-02-25T09:56:19.384Z,4.50
2019-02-25T09:57:23.500Z,4.47
2019-02-25T09:58:27.710Z,4.30
2019-02-25T09:59:31.806Z,4.90
2019-02-25T10:00:35.900Z,3.77
2019-02-25T10:01:40.303Z,3.80
2019-02-25T10:02:44.446Z,3.72
2019-02-25T10:03:48.568Z,4.03
2019-02-25T10:04:52.703Z,3.90
2019-02-25T10:05:56.813Z,3.90
2019-02-25T10:07:02.494Z,4.10
2019-02-25T10:08:06.763Z,3.83
2019-02-25T10:09:10.911Z,3.62
2019-02-25T10:10:15.328Z,3.87
2019-02-25T10:11:19.478Z,3.47
2019-02-25T10:12:23.583Z,3.83
2019-02-25T10:13:27.676Z,3.67
2019-02-25T10:14:31.808Z,3.52
2019-02-25T10:15:35.895Z,3.45
2019-02-25T10:16:39.991Z,3.10
2019-02-25T10:17:44.116Z,3.08
2019-02-25T10:18:48.209Z,4.15
2019-02-25T10:19:53.306Z,3.47
2019-02-25T10:20:57.523Z,3.55
2019-02-25T10:22:01.640Z,3.50
2019-02-25T10:23:05.779Z,3.62
2019-02-25T10:24:09.947Z,3.17
2019-02-25T10:25:14.365Z,3.47
2019-02-25T10:26:18.577Z,3.52
2019-02-25T10:27:22.701Z,3.58
2019-02-25T10:28:26.798Z,3.72
2019-02-25T10:29:30.907Z,3.42
2019-02-25T10:30:35.036Z,3.10
2019-02-25T10:31:39.654Z,3.50
2019-02-25T10:32:44.982Z,3.40
2019-02-25T10:33:50.718Z,3.05
2019-02-25T10:34:54.969Z,3.52
2019-02-25T10:35:59.050Z,3.30
2019-02-25T10:37:03.169Z,2.72
2019-02-25T10:38:07.259Z,3.02
2019-02-25T10:39:15.424Z,2.95
2019-02-25T10:40:24.064Z,2.90
2019-02-25T10:41:27.630Z,3.00
2019-02-25T10:42:33.416Z,3.05
2019-02-25T10:43:37.704Z,2.87
2019-02-25T10:44:41.812Z,3.33
2019-02-25T10:45:45.966Z,2.80
2019-02-25T10:46:50.091Z,2.90
2019-02-25T10:47:58.307Z,2.52
2019-02-25T10:49:10.924Z,2.92
2019-02-25T10:50:07.452Z,2.87
2019-02-25T10:51:13.569Z,3.00
2019-02-25T10:52:17.502Z,3.02
2019-02-25T10:53:22.066Z,2.77
2019-02-25T10:54:26.401Z,2.98
2019-02-25T10:55:33.455Z,2.90
2019-02-25T10:57:01.035Z,2.90
2019-02-25T10:58:05.622Z,2.58
2019-02-25T10:59:09.771Z,2.72
2019-02-25T11:00:15.103Z,3.00
2019-02-25T11:01:19.860Z,2.45
2019-02-25T11:02:25.152Z,3.10
2019-02-25T11:03:29.251Z,2.40
2019-02-25T11:04:33.840Z,2.77
2019-02-25T11:05:37.936Z,2.80
2019-02-25T11:06:42.088Z,2.58
2019-02-25T11:07:46.434Z,2.42
2019-02-25T11:08:56.735Z,2.77
2019-02-25T11:10:05.607Z,2.52
2019-02-25T11:11:18.821Z,2.60
2019-02-25T11:12:23.793Z,2.90
2019-02-25T11:13:29.835Z,2.52
2019-02-25T11:14:35.937Z,2.27
2019-02-25T11:15:41.830Z,2.25
2019-02-25T11:16:47.992Z,2.20
2019-02-25T11:17:53.797Z,2.60
2019-02-25T11:18:58.710Z,2.65
2019-02-25T11:20:05.581Z,2.72
2019-02-25T11:21:10.650Z,2.60
2019-02-25T11:22:16.380Z,2.27
2019-02-25T11:23:21.619Z,3.12
2019-02-25T11:24:25.888Z,3.37
2019-02-25T11:25:30.225Z,3.22
2019-02-25T11:26:35.336Z,3.05
2019-02-25T11:27:40.006Z,2.50
2019-02-25T11:28:44.220Z,2.25
2019-02-25T11:29:48.552Z,2.00
2019-02-25T11:30:53.783Z,2.72
2019-02-25T11:31:58.129Z,2.90
2019-02-25T11:33:02.321Z,2.27
2019-02-25T11:34:08.052Z,2.55
2019-02-25T11:35:13.022Z,2.30
2019-02-25T11:36:19.474Z,2.90
2019-02-25T11:37:24.765Z,2.47
2019-02-25T11:38:30.564Z,2.65
2019-02-25T11:39:36.715Z,2.37
2019-02-25T11:40:40.651Z,2.62
2019-02-25T11:41:44.743Z,2.00
2019-02-25T11:42:48.895Z,2.20
2019-02-25T11:43:55.101Z,2.33
2019-02-25T11:44:59.961Z,2.42
2019-02-25T11:46:04.680Z,2.50
2019-02-25T11:47:08.790Z,2.45
2019-02-25T11:48:12.944Z,2.35
2019-02-25T11:49:17.152Z,2.42
2019-02-25T11:50:21.256Z,2.25
2019-02-25T11:51:27.209Z,2.37
2019-02-25T11:52:31.410Z,2.70
2019-02-25T11:53:35.657Z,2.50
2019-02-25T11:54:39.773Z,2.55
2019-02-25T11:55:43.932Z,2.40
2019-02-25T11:56:48.027Z,2.50
2019-02-25T11:57:52.156Z,2.45
2019-02-25T11:58:56.280Z,2.27
2019-02-25T12:00:00.419Z,2.58
2019-02-25T12:01:04.538Z,2.10
2019-02-25T12:02:09.690Z,2.00
2019-02-25T12:03:13.818Z,2.33
2019-02-25T12:04:17.973Z,2.47
2019-02-25T12:05:22.068Z,2.20
2019-02-25T12:06:26.298Z,2.92
2019-02-25T12:07:30.393Z,2.20
2019-02-25T12:08:34.506Z,2.37
2019-02-25T12:09:38.596Z,2.12
2019-02-25T12:10:42.793Z,2.12
2019-02-25T12:11:47.257Z,2.50
2019-02-25T12:12:51.382Z,2.52
2019-02-25T12:13:55.504Z,2.08
2019-02-25T12:14:59.586Z,2.30
2019-02-25T12:16:03.671Z,2.30
2019-02-25T12:17:07.843Z,1.90
2019-02-25T12:18:11.935Z,1.95
2019-02-25T12:19:18.201Z,1.87
2019-02-25T12:20:21.876Z,2.17
2019-02-25T12:21:25.987Z,2.50
2019-02-25T12:22:30.203Z,2.45
2019-02-25T12:23:34.323Z,2.12
2019-02-25T12:24:38.647Z,2.47
2019-02-25T12:25:42.734Z,2.65
2019-02-25T12:26:46.827Z,2.17
2019-02-25T12:27:50.934Z,2.05
2019-02-25T12:28:55.142Z,2.22
2019-02-25T12:29:59.252Z,2.15
2019-02-25T12:31:03.351Z,2.12
2019-02-25T12:32:07.489Z,1.90
2019-02-25T12:33:11.579Z,2.20
2019-02-25T12:34:15.751Z,2.30
2019-02-25T12:35:19.859Z,2.80
2019-02-25T12:36:23.978Z,3.50
2019-02-25T12:37:28.137Z,2.87
2019-02-25T12:38:32.227Z,2.40
2019-02-25T12:39:36.355Z,3.00
2019-02-25T12:40:40.515Z,2.25
2019-02-25T12:41:44.627Z,2.30
2019-02-25T12:42:48.735Z,2.60
2019-02-25T12:43:52.871Z,3.02
2019-02-25T12:44:56.981Z,3.40
2019-02-25T12:46:01.099Z,2.80
2019-02-25T12:47:05.310Z,2.87
2019-02-25T12:48:09.513Z,2.60
2019-02-25T12:49:13.639Z,2.47
2019-02-25T12:50:18.190Z,2.12
2019-02-25T12:51:22.359Z,2.10
2019-02-25T12:52:26.454Z,1.90
2019-02-25T12:53:30.600Z,1.98
2019-02-25T12:54:34.716Z,1.98
2019-02-25T12:55:38.841Z,2.20
2019-02-25T12:56:42.943Z,2.12
2019-02-25T12:57:47.071Z,2.15
2019-02-25T12:58:51.264Z,2.40
2019-02-25T12:59:55.376Z,2.33
2019-02-25T13:00:59.491Z,2.20
2019-02-25T13:02:03.579Z,2.20
2019-02-25T13:03:07.728Z,2.30
2019-02-25T13:04:11.999Z,2.08
2019-02-25T13:05:16.615Z,2.17
2019-02-25T13:06:20.808Z,2.33
2019-02-25T13:07:24.991Z,2.30
2019-02-25T13:08:29.161Z,2.60
2019-02-25T13:09:33.334Z,4.80
2019-02-25T13:10:37.571Z,3.15
2019-02-25T13:11:41.839Z,3.08
2019-02-25T13:12:46.026Z,3.70
2019-02-25T13:13:50.271Z,3.05
2019-02-25T13:14:54.653Z,3.25
2019-02-25T13:15:58.755Z,2.62
2019-02-25T13:17:02.933Z,2.60
2019-02-25T13:18:07.120Z,2.10
2019-02-25T13:19:11.228Z,2.30
2019-02-25T13:20:15.384Z,2.22
2019-02-25T13:21:19.475Z,3.08
2019-02-25T13:22:23.561Z,3.27
2019-02-25T13:23:27.664Z,2.87
2019-02-25T13:24:32.685Z,3.55
2019-02-25T13:25:37.833Z,2.98
2019-02-25T13:26:41.942Z,2.80
2019-02-25T13:27:46.310Z,2.95
2019-02-25T13:28:50.655Z,4.33
2019-02-25T13:29:54.923Z,3.77
2019-02-25T13:31:00.921Z,3.25
2019-02-25T13:32:04.925Z,3.17
2019-02-25T13:33:09.086Z,2.65
2019-02-25T13:34:13.213Z,3.20
2019-02-25T13:35:17.399Z,3.60
2019-02-25T13:36:21.615Z,3.17
2019-02-25T13:37:25.862Z,2.92
2019-02-25T13:38:30.052Z,3.33
2019-02-25T13:39:34.215Z,2.80
2019-02-25T13:40:38.445Z,3.17
2019-02-25T13:41:42.579Z,3.12
2019-02-25T13:42:46.745Z,2.80
2019-02-25T13:43:50.931Z,3.40
2019-02-25T13:44:55.321Z,3.02
2019-02-25T13:45:59.461Z,2.90
2019-02-25T13:47:03.661Z,3.20
2019-02-25T13:48:07.847Z,3.33
2019-02-25T13:49:12.027Z,3.05
2019-02-25T13:50:16.223Z,3.83
2019-02-25T13:51:21.087Z,3.87
2019-02-25T13:52:25.286Z,3.00
2019-02-25T13:53:29.460Z,3.27
2019-02-25T13:54:33.640Z,3.35
2019-02-25T13:55:37.831Z,2.87
2019-02-25T13:56:42.016Z,3.35
2019-02-25T13:57:46.396Z,4.20
2019-02-25T13:58:50.584Z,4.47
2019-02-25T13:59:54.811Z,3.67
2019-02-25T14:00:59.011Z,3.22
2019-02-25T14:02:03.199Z,2.45
2019-02-25T14:03:07.375Z,2.60
2019-02-25T14:04:11.911Z,2.58
2019-02-25T14:05:16.128Z,2.30
2019-02-25T14:06:21.317Z,2.02
2019-02-25T14:07:25.793Z,1.92
2019-02-25T14:08:29.978Z,1.90
2019-02-25T14:09:34.140Z,2.10
2019-02-25T14:10:38.351Z,2.02
2019-02-25T14:11:42.532Z,2.12
2019-02-25T14:12:46.939Z,1.95
2019-02-25T14:13:51.063Z,2.08
2019-02-25T14:14:55.228Z,3.08
2019-02-25T14:15:59.439Z,2.40
2019-02-25T14:17:03.614Z,2.55
2019-02-25T14:18:07.837Z,2.10
2019-02-25T14:19:12.029Z,2.02
2019-02-25T14:20:17.383Z,2.02
2019-02-25T14:21:21.548Z,2.30
2019-02-25T14:22:25.723Z,2.35
2019-02-25T14:23:29.938Z,2.50
2019-02-25T14:24:34.120Z,1.87
2019-02-25T14:25:38.533Z,2.65
2019-02-25T14:26:44.151Z,2.08
2019-02-25T14:27:48.359Z,1.90
2019-02-25T14:28:52.651Z,2.37
2019-02-25T14:29:57.050Z,1.90
2019-02-25T14:31:01.219Z,2.10
2019-02-25T14:32:06.413Z,2.37
2019-02-25T14:33:12.606Z,2.40
2019-02-25T14:34:16.454Z,2.33
2019-02-25T14:35:20.664Z,2.02
2019-02-25T14:36:24.824Z,2.00
2019-02-25T14:37:29.000Z,2.55
2019-02-25T14:38:35.399Z,2.45
2019-02-25T14:39:40.858Z,2.42
2019-02-25T14:40:46.724Z,1.87